首页
METAR-TAF:

METAR-TAF

机场 :

Grand Forks Air Force Base

大福克斯, 北达科他州, 美国

纬度: 47-58N, 经度: 097-24W, 海拔: 278米

当前天气观测

该预报发布于29分钟前的00:55 UTC
风速4节,风向北转东北
温度 18°C
湿度 56%
气压 1010 hPa
能見度: 16.1公里
散云层高于20000英尺

METAR: KRDR 210055Z AUTO 02004KT 10SM SCT200 18/09 A2983 RMK AO2 SLP108 T01830091 VISNO RWY18 $

时间: 20:24 (01:24 UTC)

预报

该预报发布于7小时和24分钟前的18:00 UTC
预报有效从20日的 18点(UTC)到 21日的 24点(UTC)
风速12节,风向
能见度10公里或以上
多云层高于3000英尺
成为
从 21日的 01点(UTC)到 21日的 02点(UTC)
风速6节,风向多变
能见度10公里或以上
少量云层高于4500英尺
成为
从 21日的 13点(UTC)到 21日的 14点(UTC)
风速12节,风向北转东北
能见度10公里或以上
散云层高于2000英尺
多云层高于15000英尺
成为
从 21日的 17点(UTC)到 21日的 18点(UTC)
风速12节,风向东转东北,有时为18节阵风
能见度10公里或以上
多云层高于2000英尺
阴天层高于15000英尺
短暂存在
从 21日的 18点(UTC)到 21日的 21点(UTC)
能見度: 9000
阴天层高于1000英尺
小阵雨,

TAF: KRDR 201800Z 2018/2124 35012KT 9999 BKN030 QNH2981INS BECMG 2101/2102 VRB06KT 9999 FEW045 QNH2982INS BECMG 2113/2114 02012KT 9999 SCT020 BKN150 QNH2976INS BECMG 2117/2118 06012G18KT 9999 BKN020 OVC150 QNH2966INS TEMPO 2118/2121 9000 -SHRA OVC010 TX20/2021Z TN09/2110Z

超过4000个机场的气象观测和天气预报(METAR&TAF报告)。

可查询的气象台以黄色和红色小点在地图上表示。

将鼠标移到小点上方,可查看气象台名称。

然后点击查看天气观测和预报。

如需切换地图:点击带黑十字的绿色按钮放大地图;点击带横线的绿色按钮缩小地图;或者点击绿色箭头查看邻近地区的地图。


METAR-TAF: